Time;durP1;ratioP1;P1;durP2;ratioP2;P2;SDS_P1;SDS_P2;PMS_P1;PMS_P2;Temp;Humidity;BMP_temperature;BMP_pressure;BME280_temperature;BME280_humidity;BME280_pressure;Samples;Min_cycle;Max_cycle;Signal;HPM_P1;HPM_P2
2021/05/03 00:01:13;;;;;;;7.20;6.50;;;;;;;;;;5071369;28;20419;-53
2021/05/03 00:03:39;;;;;;;6.90;6.30;;;;;;;;;;5071388;28;20452;-52
2021/05/03 00:06:05;;;;;;;7.23;6.60;;;;;;;;;;5071255;28;20461;-52
2021/05/03 00:08:31;;;;;;;6.37;5.77;;;;;;;;;;5071263;28;20416;-52
2021/05/03 00:10:57;;;;;;;11.50;7.22;;;;;;;;;;5070872;28;20404;-52
2021/05/03 00:13:25;;;;;;;8.00;6.80;;;;;;;;;;5071266;28;20229;-52
2021/05/03 00:15:51;;;;;;;8.48;6.55;;;;;;;;;;5071172;28;20792;-55
2021/05/03 00:18:17;;;;;;;8.73;6.97;;;;;;;;;;5071119;28;20260;-52
2021/05/03 00:20:44;;;;;;;7.80;6.70;;;;;;;;;;5070803;28;20774;-52
2021/05/03 00:23:10;;;;;;;8.60;6.90;;;;;;;;;;5070880;28;20392;-52
2021/05/03 00:25:36;;;;;;;8.80;7.27;;;;;;;;;;5071070;28;20167;-54
2021/05/03 00:28:02;;;;;;;7.28;6.60;;;;;;;;;;5070876;28;20420;-54
2021/05/03 00:30:28;;;;;;;10.63;7.00;;;;;;;;;;5070765;28;20258;-53
2021/05/03 00:32:54;;;;;;;10.15;6.75;;;;;;;;;;5070827;28;20426;-51
2021/05/03 00:35:20;;;;;;;8.50;6.07;;;;;;;;;;5070894;28;20165;-51
2021/05/03 00:37:45;;;;;;;7.80;6.90;;;;;;;;;;5070766;28;20463;-51
2021/05/03 00:40:12;;;;;;;12.67;7.10;;;;;;;;;;5070733;28;20397;-52
2021/05/03 00:42:38;;;;;;;9.15;6.90;;;;;;;;;;5070981;28;20402;-52
2021/05/03 00:45:11;;;;;;;7.70;6.90;;;;;;;;;;5070993;28;20197;-51
2021/05/03 00:47:37;;;;;;;7.63;6.93;;;;;;;;;;5070825;28;20162;-54
2021/05/03 00:50:04;;;;;;;8.02;6.75;;;;;;;;;;5070766;28;20903;-52
2021/05/03 00:52:30;;;;;;;10.35;8.05;;;;;;;;;;5070873;28;20163;-51
2021/05/03 00:54:56;;;;;;;10.87;6.93;;;;;;;;;;5070825;28;20200;-51
2021/05/03 00:57:22;;;;;;;8.50;7.60;;;;;;;;;;5070233;28;20405;-51
2021/05/03 00:59:48;;;;;;;9.05;7.78;;;;;;;;;;5070462;28;20422;-52
2021/05/03 01:02:14;;;;;;;9.65;7.72;;;;;;;;;;5069955;28;20170;-51
2021/05/03 01:04:41;;;;;;;9.13;8.00;;;;;;;;;;5069897;28;20219;-52
2021/05/03 01:07:07;;;;;;;7.93;7.15;;;;;;;;;;5069942;28;20472;-52
2021/05/03 01:09:33;;;;;;;9.43;7.22;;;;;;;;;;5070162;28;20387;-52
2021/05/03 01:11:59;;;;;;;10.85;7.72;;;;;;;;;;5070550;28;20185;-51
2021/05/03 01:14:25;;;;;;;11.45;7.70;;;;;;;;;;5070476;28;20173;-51
2021/05/03 01:16:51;;;;;;;9.20;7.45;;;;;;;;;;5070461;28;20185;-52
2021/05/03 01:19:20;;;;;;;10.70;8.32;;;;;;;;;;5070165;28;20606;-52
2021/05/03 01:21:46;;;;;;;9.52;8.27;;;;;;;;;;5070400;28;20710;-52
2021/05/03 01:24:12;;;;;;;8.23;6.95;;;;;;;;;;5070207;28;20265;-54
2021/05/03 01:26:38;;;;;;;8.43;7.63;;;;;;;;;;5071013;28;20199;-54
2021/05/03 01:29:04;;;;;;;9.20;8.10;;;;;;;;;;5069980;28;20415;-52
2021/05/03 01:31:30;;;;;;;7.60;6.77;;;;;;;;;;5070244;28;20440;-52
2021/05/03 01:33:56;;;;;;;12.30;8.17;;;;;;;;;;5070213;28;20400;-52
2021/05/03 01:36:22;;;;;;;11.10;7.53;;;;;;;;;;5070292;28;20968;-52
2021/05/03 01:38:48;;;;;;;11.57;8.47;;;;;;;;;;5069806;28;20997;-52
2021/05/03 01:41:14;;;;;;;10.73;8.15;;;;;;;;;;5070244;28;20853;-54
2021/05/03 01:43:41;;;;;;;8.17;7.37;;;;;;;;;;5070086;28;20269;-54
2021/05/03 01:46:07;;;;;;;10.68;7.88;;;;;;;;;;5070139;28;20405;-52
2021/05/03 01:48:34;;;;;;;14.43;8.40;;;;;;;;;;5069985;28;20193;-53
2021/05/03 01:51:00;;;;;;;16.25;9.10;;;;;;;;;;5070107;28;20175;-52
2021/05/03 01:53:26;;;;;;;10.95;8.82;;;;;;;;;;5070068;28;20649;-53
2021/05/03 01:55:53;;;;;;;17.38;7.60;;;;;;;;;;5070118;28;20661;-52
2021/05/03 01:58:19;;;;;;;11.13;8.20;;;;;;;;;;5069870;28;20192;-54
2021/05/03 02:00:45;;;;;;;9.53;8.00;;;;;;;;;;5069739;28;20181;-54
2021/05/03 02:03:19;;;;;;;11.80;8.77;;;;;;;;;;5069978;28;20914;-55
2021/05/03 02:05:45;;;;;;;11.30;8.80;;;;;;;;;;5070039;28;20405;-52
2021/05/03 02:08:11;;;;;;;11.35;8.88;;;;;;;;;;5069967;28;20192;-52
2021/05/03 02:10:38;;;;;;;16.50;10.02;;;;;;;;;;5072648;28;20176;-52
2021/05/03 02:13:04;;;;;;;19.50;12.07;;;;;;;;;;5073479;28;20175;-53
2021/05/03 02:15:30;;;;;;;18.77;13.10;;;;;;;;;;5073485;28;20176;-52
2021/05/03 02:17:56;;;;;;;15.88;11.50;;;;;;;;;;5073313;28;20451;-52
2021/05/03 02:20:23;;;;;;;16.23;12.93;;;;;;;;;;5073092;28;20162;-53
2021/05/03 02:22:49;;;;;;;18.52;11.98;;;;;;;;;;5073296;28;20166;-52
2021/05/03 02:25:15;;;;;;;14.43;11.30;;;;;;;;;;5073177;28;20203;-52
2021/05/03 02:27:41;;;;;;;18.88;9.45;;;;;;;;;;5073141;28;20191;-54
2021/05/03 02:30:09;;;;;;;11.75;9.73;;;;;;;;;;5072904;28;20176;-53
2021/05/03 02:32:35;;;;;;;9.55;8.65;;;;;;;;;;5073084;28;20179;-54
2021/05/03 02:35:05;;;;;;;10.68;9.50;;;;;;;;;;5073189;28;20675;-52
2021/05/03 02:37:31;;;;;;;13.57;8.43;;;;;;;;;;5073000;28;20258;-52
2021/05/03 02:39:57;;;;;;;13.85;8.40;;;;;;;;;;5072773;28;20205;-54
2021/05/03 02:42:23;;;;;;;10.50;8.80;;;;;;;;;;5073005;28;20227;-54
2021/05/03 02:44:50;;;;;;;11.82;9.32;;;;;;;;;;5072990;28;20835;-53
2021/05/03 02:47:16;;;;;;;11.63;9.68;;;;;;;;;;5073166;28;20174;-52
2021/05/03 02:49:42;;;;;;;10.57;9.48;;;;;;;;;;5072456;28;20661;-53
2021/05/03 02:52:08;;;;;;;11.87;9.03;;;;;;;;;;5072890;28;20166;-53
2021/05/03 02:54:34;;;;;;;14.73;9.32;;;;;;;;;;5072843;28;20395;-52
2021/05/03 02:57:00;;;;;;;11.43;9.93;;;;;;;;;;5073007;28;20208;-53
2021/05/03 02:59:26;;;;;;;10.00;9.00;;;;;;;;;;5072502;28;20642;-53
2021/05/03 03:01:52;;;;;;;12.65;9.63;;;;;;;;;;5072878;28;20517;-52
2021/05/03 03:04:18;;;;;;;12.90;9.73;;;;;;;;;;5072771;28;20226;-52
2021/05/03 03:06:44;;;;;;;9.82;8.38;;;;;;;;;;5072582;28;20158;-53
2021/05/03 03:09:11;;;;;;;11.18;8.95;;;;;;;;;;5072270;28;20194;-53
2021/05/03 03:11:37;;;;;;;11.77;9.40;;;;;;;;;;5072294;28;20541;-53
2021/05/03 03:14:03;;;;;;;11.45;9.45;;;;;;;;;;5072584;28;20267;-52
2021/05/03 03:16:30;;;;;;;11.15;9.85;;;;;;;;;;5072410;28;20177;-52
2021/05/03 03:18:57;;;;;;;14.65;9.77;;;;;;;;;;5071965;28;20235;-52
2021/05/03 03:21:24;;;;;;;17.15;9.35;;;;;;;;;;5071615;28;20176;-54
2021/05/03 03:23:50;;;;;;;13.05;9.43;;;;;;;;;;5072070;28;20572;-52
2021/05/03 03:26:16;;;;;;;14.98;10.63;;;;;;;;;;5072168;28;20171;-52
2021/05/03 03:28:42;;;;;;;10.80;9.53;;;;;;;;;;5071764;28;20182;-52
2021/05/03 03:31:08;;;;;;;12.07;10.77;;;;;;;;;;5071857;28;21682;-52
2021/05/03 03:33:34;;;;;;;14.33;9.80;;;;;;;;;;5072000;28;20897;-52
2021/05/03 03:36:00;;;;;;;13.83;9.70;;;;;;;;;;5071775;28;20751;-52
2021/05/03 03:38:26;;;;;;;16.08;11.20;;;;;;;;;;5071775;28;20418;-52
2021/05/03 03:40:52;;;;;;;13.97;11.00;;;;;;;;;;5071490;28;20170;-53
2021/05/03 03:43:18;;;;;;;14.83;12.17;;;;;;;;;;5071771;28;20911;-54
2021/05/03 03:45:43;;;;;;;15.80;12.00;;;;;;;;;;5071662;28;20434;-54
2021/05/03 03:48:09;;;;;;;12.90;10.00;;;;;;;;;;5071659;28;20427;-52
2021/05/03 03:50:35;;;;;;;20.33;11.07;;;;;;;;;;5071374;28;21078;-52
2021/05/03 03:53:01;;;;;;;16.77;10.90;;;;;;;;;;5071439;28;20412;-52
2021/05/03 03:55:28;;;;;;;13.30;10.53;;;;;;;;;;5071598;28;20439;-52
2021/05/03 03:57:54;;;;;;;15.35;11.02;;;;;;;;;;5071322;28;20471;-52
2021/05/03 04:00:20;;;;;;;14.05;10.55;;;;;;;;;;5071236;28;20181;-52
2021/05/03 04:02:47;;;;;;;16.70;10.68;;;;;;;;;;5071362;28;20168;-52
2021/05/03 04:07:56;;;;;;;14.45;11.13;;;;;;;;;;5071134;28;20166;-52
2021/05/03 04:21:18;;;;;;;13.20;9.75;;;;;;;;;;5071442;28;20185;-53
2021/05/03 04:23:49;;;;;;;18.10;12.75;;;;;;;;;;5070972;28;20189;-52
2021/05/03 04:26:16;;;;;;;12.65;10.30;;;;;;;;;;5071113;28;20172;-53
2021/05/03 04:28:42;;;;;;;12.95;10.55;;;;;;;;;;5070620;28;20186;-53
2021/05/03 04:31:08;;;;;;;15.80;10.88;;;;;;;;;;5070570;28;20196;-53
2021/05/03 04:33:34;;;;;;;13.57;11.20;;;;;;;;;;5070444;28;20249;-52
2021/05/03 04:36:01;;;;;;;17.45;11.15;;;;;;;;;;5070911;28;20221;-52
2021/05/03 04:38:27;;;;;;;18.00;12.30;;;;;;;;;;5070813;28;20193;-52
2021/05/03 04:40:53;;;;;;;17.98;11.30;;;;;;;;;;5070666;28;20186;-52
2021/05/03 04:43:20;;;;;;;12.80;10.98;;;;;;;;;;5070733;28;20172;-52
2021/05/03 04:45:46;;;;;;;17.25;11.80;;;;;;;;;;5070774;28;20222;-54
2021/05/03 04:48:12;;;;;;;11.70;10.38;;;;;;;;;;5070732;28;20200;-52
2021/05/03 04:50:38;;;;;;;18.57;11.43;;;;;;;;;;5070831;28;20160;-52
2021/05/03 04:53:04;;;;;;;13.03;10.70;;;;;;;;;;5070985;28;20481;-52
2021/05/03 04:55:30;;;;;;;18.45;11.85;;;;;;;;;;5070755;28;20534;-52
2021/05/03 04:57:56;;;;;;;16.95;11.07;;;;;;;;;;5070626;28;20211;-52
2021/05/03 05:00:22;;;;;;;19.77;11.80;;;;;;;;;;5070490;28;20268;-52
2021/05/03 05:02:48;;;;;;;14.05;10.95;;;;;;;;;;5070613;28;20919;-52
2021/05/03 05:05:14;;;;;;;16.73;11.10;;;;;;;;;;5070624;28;20199;-52
2021/05/03 05:07:41;;;;;;;23.03;13.17;;;;;;;;;;5070641;28;20914;-52
2021/05/03 05:10:08;;;;;;;21.30;13.48;;;;;;;;;;5070190;28;20396;-53
2021/05/03 05:12:34;;;;;;;19.42;13.30;;;;;;;;;;5070523;28;20540;-52
2021/05/03 05:15:00;;;;;;;18.90;12.60;;;;;;;;;;5070537;28;20200;-53
2021/05/03 05:17:27;;;;;;;17.87;12.70;;;;;;;;;;5070523;28;20717;-52
2021/05/03 05:19:53;;;;;;;16.80;11.75;;;;;;;;;;5070134;28;20434;-53
2021/05/03 05:22:19;;;;;;;14.80;10.93;;;;;;;;;;5070450;28;20219;-53
2021/05/03 05:24:45;;;;;;;14.93;10.50;;;;;;;;;;5070207;28;20250;-53
2021/05/03 05:27:11;;;;;;;18.40;11.70;;;;;;;;;;5070431;28;20167;-53
2021/05/03 05:29:38;;;;;;;15.43;11.23;;;;;;;;;;5070044;28;20415;-53
2021/05/03 05:32:04;;;;;;;16.55;11.20;;;;;;;;;;5070265;28;20308;-53
2021/05/03 05:34:30;;;;;;;17.45;10.85;;;;;;;;;;5070248;28;20320;-53
2021/05/03 05:36:56;;;;;;;15.10;10.90;;;;;;;;;;5070374;28;20721;-53
2021/05/03 05:39:22;;;;;;;16.27;12.60;;;;;;;;;;5069846;28;20428;-53
2021/05/03 05:41:48;;;;;;;12.73;10.67;;;;;;;;;;5070305;28;20275;-54
2021/05/03 05:44:14;;;;;;;15.10;10.30;;;;;;;;;;5072705;28;20517;-54
2021/05/03 05:46:40;;;;;;;12.35;10.38;;;;;;;;;;5074039;28;20841;-54
2021/05/03 05:49:07;;;;;;;14.75;10.40;;;;;;;;;;5073056;28;20190;-53
2021/05/03 05:51:33;;;;;;;23.10;10.45;;;;;;;;;;5073144;28;20525;-53
2021/05/03 05:53:59;;;;;;;13.82;10.13;;;;;;;;;;5073240;28;20165;-53
2021/05/03 05:56:26;;;;;;;13.13;9.30;;;;;;;;;;5073358;28;20170;-53
2021/05/03 05:58:52;;;;;;;12.68;9.02;;;;;;;;;;5073355;28;20799;-53
2021/05/03 06:01:18;;;;;;;10.15;9.00;;;;;;;;;;5072436;28;20200;-53
2021/05/03 06:03:44;;;;;;;12.35;9.63;;;;;;;;;;5073646;28;20264;-54
2021/05/03 06:06:11;;;;;;;13.63;10.03;;;;;;;;;;5073552;28;20630;-55
2021/05/03 06:08:37;;;;;;;12.05;8.48;;;;;;;;;;5073378;28;20451;-53
2021/05/03 06:11:03;;;;;;;10.27;9.13;;;;;;;;;;5073406;28;20167;-53
2021/05/03 06:13:29;;;;;;;9.37;8.37;;;;;;;;;;5073590;28;20930;-52
2021/05/03 06:15:55;;;;;;;11.67;8.23;;;;;;;;;;5072053;28;20477;-53
2021/05/03 06:18:22;;;;;;;26.35;10.15;;;;;;;;;;5073341;28;20979;-55
2021/05/03 06:20:48;;;;;;;12.10;7.75;;;;;;;;;;5072998;28;20276;-55
2021/05/03 06:23:14;;;;;;;8.70;7.88;;;;;;;;;;5073288;28;20173;-53
2021/05/03 06:25:41;;;;;;;9.90;8.20;;;;;;;;;;5073382;28;20214;-53
2021/05/03 06:28:07;;;;;;;11.10;8.43;;;;;;;;;;5073194;28;20181;-53
2021/05/03 06:30:33;;;;;;;8.20;7.40;;;;;;;;;;5072885;28;20510;-53
2021/05/03 06:32:59;;;;;;;13.20;7.70;;;;;;;;;;5073106;28;20416;-53
2021/05/03 06:35:26;;;;;;;14.27;8.23;;;;;;;;;;5073041;28;20411;-54
2021/05/03 06:37:52;;;;;;;9.03;7.37;;;;;;;;;;5073048;28;20429;-53
2021/05/03 06:40:18;;;;;;;8.43;7.63;;;;;;;;;;5072803;28;20402;-53
2021/05/03 06:42:46;;;;;;;8.70;7.10;;;;;;;;;;5073091;28;20393;-53
2021/05/03 06:45:12;;;;;;;9.13;6.83;;;;;;;;;;5072857;28;20824;-53
2021/05/03 06:47:38;;;;;;;7.50;6.70;;;;;;;;;;5072912;28;20409;-53
2021/05/03 06:50:05;;;;;;;8.00;7.10;;;;;;;;;;5073031;28;20804;-53
2021/05/03 06:52:31;;;;;;;8.27;7.43;;;;;;;;;;5072970;28;20454;-54
2021/05/03 06:54:57;;;;;;;8.33;7.37;;;;;;;;;;5072331;28;20412;-55
2021/05/03 06:57:23;;;;;;;10.07;8.37;;;;;;;;;;5072952;28;20411;-56
2021/05/03 06:59:49;;;;;;;10.40;7.03;;;;;;;;;;5072567;28;20423;-55
2021/05/03 07:02:15;;;;;;;8.57;7.63;;;;;;;;;;5072623;28;20947;-54
2021/05/03 07:04:42;;;;;;;13.70;9.07;;;;;;;;;;5072650;28;20586;-56
2021/05/03 07:07:08;;;;;;;12.90;8.70;;;;;;;;;;5072533;28;20408;-55
2021/05/03 07:09:34;;;;;;;9.90;7.97;;;;;;;;;;5072218;28;20442;-55
2021/05/03 07:12:07;;;;;;;11.83;9.17;;;;;;;;;;5072614;28;20484;-54
2021/05/03 07:14:33;;;;;;;8.73;7.47;;;;;;;;;;5072544;28;20892;-53
2021/05/03 07:16:59;;;;;;;9.47;7.07;;;;;;;;;;5072287;28;20892;-52
2021/05/03 07:19:25;;;;;;;10.23;7.70;;;;;;;;;;5071991;28;20427;-52
2021/05/03 07:21:51;;;;;;;12.40;7.97;;;;;;;;;;5072220;28;20415;-53
2021/05/03 07:24:17;;;;;;;7.37;6.30;;;;;;;;;;5072182;28;20460;-53
2021/05/03 07:26:43;;;;;;;5.90;5.23;;;;;;;;;;5072609;28;20399;-53
2021/05/03 07:29:09;;;;;;;7.63;6.20;;;;;;;;;;5071736;28;20990;-54
2021/05/03 07:31:35;;;;;;;5.90;5.40;;;;;;;;;;5071817;28;20512;-55
2021/05/03 07:34:01;;;;;;;7.03;5.70;;;;;;;;;;5071878;28;20408;-54
2021/05/03 07:36:27;;;;;;;7.13;5.93;;;;;;;;;;5071971;28;20807;-53
2021/05/03 07:38:53;;;;;;;8.80;5.87;;;;;;;;;;5071486;28;20845;-53
2021/05/03 07:41:19;;;;;;;7.27;6.47;;;;;;;;;;5071931;28;20400;-53
2021/05/03 07:43:45;;;;;;;5.97;5.47;;;;;;;;;;5071641;28;20806;-53
2021/05/03 07:46:11;;;;;;;7.90;5.90;;;;;;;;;;5071672;28;20397;-53
2021/05/03 07:48:37;;;;;;;6.67;5.97;;;;;;;;;;5071397;28;20473;-53
2021/05/03 07:51:03;;;;;;;7.77;5.10;;;;;;;;;;5072278;28;20431;-55
2021/05/03 07:53:29;;;;;;;6.40;5.40;;;;;;;;;;5071666;28;20404;-54
2021/05/03 07:55:55;;;;;;;8.17;4.87;;;;;;;;;;5071539;28;20403;-54
2021/05/03 07:58:21;;;;;;;6.10;5.23;;;;;;;;;;5070167;28;20499;-53
2021/05/03 08:00:49;;;;;;;5.53;5.03;;;;;;;;;;5071240;28;20476;-54
2021/05/03 08:03:16;;;;;;;5.30;4.80;;;;;;;;;;5071274;28;20809;-54
2021/05/03 08:05:43;;;;;;;5.67;4.60;;;;;;;;;;5071258;28;20968;-55
2021/05/03 08:08:09;;;;;;;4.67;4.27;;;;;;;;;;5071270;28;20424;-56
2021/05/03 08:10:35;;;;;;;7.60;5.00;;;;;;;;;;5071086;28;20413;-56
2021/05/03 08:13:01;;;;;;;5.37;4.10;;;;;;;;;;5071276;28;20401;-54
2021/05/03 08:15:28;;;;;;;11.30;4.63;;;;;;;;;;5071043;28;20379;-54
2021/05/03 08:17:54;;;;;;;4.67;4.27;;;;;;;;;;5071072;28;20436;-54
2021/05/03 08:20:20;;;;;;;4.20;3.90;;;;;;;;;;5071096;28;20435;-54
2021/05/03 08:22:46;;;;;;;4.43;4.13;;;;;;;;;;5071199;28;20375;-54
2021/05/03 08:25:13;;;;;;;4.30;4.00;;;;;;;;;;5076232;28;20434;-54
2021/05/03 08:27:39;;;;;;;4.00;3.60;;;;;;;;;;5080121;28;20411;-53
2021/05/03 08:30:05;;;;;;;3.97;3.37;;;;;;;;;;5077865;28;20383;-54
2021/05/03 08:32:31;;;;;;;6.43;3.53;;;;;;;;;;5070947;28;20387;-56
2021/05/03 08:34:57;;;;;;;4.87;2.97;;;;;;;;;;5069699;28;20511;-56
2021/05/03 08:37:24;;;;;;;5.10;3.03;;;;;;;;;;5070956;28;20436;-55
2021/05/03 08:39:50;;;;;;;3.17;2.87;;;;;;;;;;5070495;28;20491;-55
2021/05/03 08:42:17;;;;;;;3.57;3.27;;;;;;;;;;5082161;28;20845;-54
2021/05/03 08:44:46;;;;;;;4.27;3.20;;;;;;;;;;5090666;28;20891;-53
2021/05/03 08:47:12;;;;;;;4.03;3.00;;;;;;;;;;5090947;28;20396;-54
2021/05/03 08:49:55;;;;;;;4.70;3.10;;;;;;;;;;5090603;28;20458;-56
2021/05/03 08:52:29;;;;;;;3.30;3.10;;;;;;;;;;5086696;28;20443;-54
2021/05/03 08:54:56;;;;;;;4.00;3.30;;;;;;;;;;5081695;28;20892;-54
2021/05/03 08:57:21;;;;;;;4.90;3.50;;;;;;;;;;5090691;28;20407;-54
2021/05/03 08:59:47;;;;;;;4.03;3.70;;;;;;;;;;5090410;28;20427;-54
2021/05/03 09:02:15;;;;;;;5.30;4.73;;;;;;;;;;5090780;28;20473;-54
2021/05/03 09:04:41;;;;;;;5.77;5.10;;;;;;;;;;5090651;28;20453;-54
2021/05/03 09:07:07;;;;;;;5.50;4.37;;;;;;;;;;5090743;28;20399;-54
2021/05/03 09:09:40;;;;;;;5.57;3.70;;;;;;;;;;5090364;28;20468;-54
2021/05/03 09:12:06;;;;;;;5.60;4.83;;;;;;;;;;5090728;28;21006;-54
2021/05/03 09:14:33;;;;;;;6.70;5.03;;;;;;;;;;5090683;28;20410;-56
2021/05/03 09:16:59;;;;;;;5.90;5.40;;;;;;;;;;5090646;28;20410;-54
2021/05/03 09:19:26;;;;;;;6.00;5.60;;;;;;;;;;5093487;28;20419;-55
2021/05/03 09:21:52;;;;;;;5.30;4.80;;;;;;;;;;5094763;28;20431;-55
2021/05/03 09:26:55;;;;;;;6.67;5.40;;;;;;;;;;5094770;28;20951;-55
2021/05/03 09:29:24;;;;;;;6.00;5.40;;;;;;;;;;5094275;28;20438;-54
2021/05/03 09:31:57;;;;;;;5.50;5.00;;;;;;;;;;5094319;28;20423;-54
2021/05/03 09:34:27;;;;;;;4.50;4.20;;;;;;;;;;5094529;28;20486;-54
2021/05/03 09:36:53;;;;;;;5.03;4.53;;;;;;;;;;5094264;28;20407;-56
2021/05/03 09:39:31;;;;;;;4.87;4.47;;;;;;;;;;5094175;28;20430;-55
2021/05/03 09:41:57;;;;;;;4.23;3.83;;;;;;;;;;5094308;28;20898;-56
2021/05/03 09:44:23;;;;;;;6.03;5.37;;;;;;;;;;5094071;28;20455;-56
2021/05/03 09:46:51;;;;;;;6.07;5.57;;;;;;;;;;5094395;28;20411;-56
2021/05/03 09:49:18;;;;;;;4.63;4.33;;;;;;;;;;5092378;28;20502;-56
2021/05/03 09:51:46;;;;;;;3.90;3.40;;;;;;;;;;5094202;28;20399;-54
2021/05/03 09:54:16;;;;;;;4.83;4.30;;;;;;;;;;5094008;28;20396;-55
2021/05/03 09:56:49;;;;;;;6.93;3.87;;;;;;;;;;5094114;28;20486;-54
2021/05/03 09:59:28;;;;;;;4.93;3.80;;;;;;;;;;5093577;28;20441;-54
2021/05/03 10:02:03;;;;;;;5.73;4.07;;;;;;;;;;5093904;28;20411;-54
2021/05/03 10:04:30;;;;;;;5.93;4.63;;;;;;;;;;5093672;28;20451;-54
2021/05/03 10:06:56;;;;;;;5.20;4.80;;;;;;;;;;5094113;28;20424;-55
2021/05/03 10:09:23;;;;;;;5.20;4.77;;;;;;;;;;5093520;28;20455;-54
2021/05/03 10:11:49;;;;;;;5.63;5.13;;;;;;;;;;5093841;28;20396;-54
2021/05/03 10:14:15;;;;;;;5.20;4.80;;;;;;;;;;5093785;28;20430;-54
2021/05/03 10:16:41;;;;;;;5.37;4.40;;;;;;;;;;5093572;28;20403;-55
2021/05/03 10:19:08;;;;;;;5.60;4.37;;;;;;;;;;5093389;28;20468;-56
2021/05/03 10:21:34;;;;;;;6.10;4.60;;;;;;;;;;5093533;28;20395;-55
2021/05/03 10:24:01;;;;;;;5.00;4.60;;;;;;;;;;5093533;28;20443;-55
2021/05/03 10:26:27;;;;;;;6.27;5.27;;;;;;;;;;5093433;28;20434;-54
2021/05/03 10:28:54;;;;;;;7.23;5.53;;;;;;;;;;5092836;28;20427;-54
2021/05/03 10:31:20;;;;;;;6.43;5.80;;;;;;;;;;5091096;28;20431;-54
2021/05/03 10:33:46;;;;;;;6.27;5.67;;;;;;;;;;5093632;28;20407;-57
2021/05/03 10:36:30;;;;;;;5.80;5.20;;;;;;;;;;5093459;28;20434;-58
2021/05/03 10:38:56;;;;;;;6.23;5.70;;;;;;;;;;5093123;28;20423;-54
2021/05/03 10:41:22;;;;;;;6.17;5.60;;;;;;;;;;5093191;28;20400;-54
2021/05/03 10:43:48;;;;;;;5.57;5.10;;;;;;;;;;5093406;28;20387;-54
2021/05/03 10:51:37;;;;;;;6.20;5.60;;;;;;;;;;5093165;28;20400;-54
2021/05/03 10:54:16;;;;;;;6.30;5.67;;;;;;;;;;5092893;28;20410;-54
2021/05/03 10:56:43;;;;;;;5.93;5.43;;;;;;;;;;5092988;28;20860;-54
2021/05/03 10:59:10;;;;;;;6.73;6.07;;;;;;;;;;5092549;28;20915;-56
2021/05/03 11:02:05;;;;;;;6.83;6.13;;;;;;;;;;5092938;28;20791;-54
2021/05/03 11:04:33;;;;;;;7.03;5.73;;;;;;;;;;5075489;28;20608;-54
2021/05/03 11:06:59;;;;;;;6.07;5.50;;;;;;;;;;5092725;28;20744;-56
2021/05/03 11:09:28;;;;;;;6.43;5.93;;;;;;;;;;5092388;28;20431;-55
2021/05/03 11:12:09;;;;;;;9.37;6.13;;;;;;;;;;5092580;28;20925;-53
2021/05/03 11:14:36;;;;;;;6.20;5.70;;;;;;;;;;5092650;28;20924;-53
2021/05/03 11:17:03;;;;;;;8.10;6.23;;;;;;;;;;5092578;28;20400;-54
2021/05/03 11:19:54;;;;;;;7.10;6.50;;;;;;;;;;5092157;28;20459;-53
2021/05/03 11:22:20;;;;;;;6.93;6.20;;;;;;;;;;5092054;28;20388;-53
2021/05/03 11:24:59;;;;;;;14.20;5.80;;;;;;;;;;5092327;28;20554;-54
2021/05/03 11:28:18;;;;;;;6.63;6.03;;;;;;;;;;5092355;28;20381;-54
2021/05/03 11:30:53;;;;;;;6.57;5.93;;;;;;;;;;5091908;28;20370;-54
2021/05/03 11:33:24;;;;;;;6.20;5.73;;;;;;;;;;5092300;28;20929;-54
2021/05/03 11:36:00;;;;;;;6.70;6.00;;;;;;;;;;5092240;28;20400;-55
2021/05/03 11:38:38;;;;;;;7.03;6.33;;;;;;;;;;5092127;28;20461;-55
2021/05/03 11:46:31;;;;;;;8.17;5.53;;;;;;;;;;5090694;28;20401;-55
2021/05/03 11:48:58;;;;;;;9.73;6.53;;;;;;;;;;5090414;28;20536;-55
2021/05/03 11:51:24;;;;;;;6.53;5.93;;;;;;;;;;5091826;28;20374;-56
2021/05/03 11:53:51;;;;;;;5.67;5.17;;;;;;;;;;5091845;28;20923;-55
2021/05/03 11:56:27;;;;;;;6.33;5.67;;;;;;;;;;5091665;28;20396;-55
2021/05/03 11:58:55;;;;;;;7.00;6.30;;;;;;;;;;5091382;28;20441;-55
2021/05/03 12:01:22;;;;;;;9.87;6.90;;;;;;;;;;5091769;28;20723;-55
2021/05/03 12:03:49;;;;;;;6.73;6.03;;;;;;;;;;5091635;28;20383;-55
2021/05/03 12:06:33;;;;;;;7.83;5.37;;;;;;;;;;5091726;28;20410;-55
2021/05/03 12:09:00;;;;;;;7.60;5.27;;;;;;;;;;5091150;28;20494;-55
2021/05/03 12:11:26;;;;;;;6.50;5.33;;;;;;;;;;5091687;28;20395;-55
2021/05/03 12:13:56;;;;;;;6.67;5.97;;;;;;;;;;5091518;28;20374;-55
2021/05/03 12:16:38;;;;;;;6.70;5.70;;;;;;;;;;5091490;28;20385;-55
2021/05/03 12:19:11;;;;;;;8.43;5.23;;;;;;;;;;5090874;28;20780;-55
2021/05/03 12:21:37;;;;;;;6.60;6.10;;;;;;;;;;5091259;28;20415;-55
2021/05/03 12:24:13;;;;;;;15.20;5.73;;;;;;;;;;5091160;28;20447;-55
2021/05/03 12:26:50;;;;;;;7.20;5.80;;;;;;;;;;5091292;28;20391;-55
2021/05/03 12:29:16;;;;;;;6.20;5.60;;;;;;;;;;5090906;28;20443;-55
2021/05/03 12:31:42;;;;;;;7.33;5.90;;;;;;;;;;5090913;28;20439;-55
2021/05/03 12:34:08;;;;;;;7.63;6.83;;;;;;;;;;5090943;28;20374;-55
2021/05/03 12:36:34;;;;;;;6.23;5.73;;;;;;;;;;5091098;28;20386;-55
2021/05/03 12:39:09;;;;;;;9.80;6.27;;;;;;;;;;5090772;28;20423;-55
2021/05/03 12:41:35;;;;;;;10.53;7.37;;;;;;;;;;5090832;28;20441;-55
2021/05/03 12:44:03;;;;;;;7.40;6.80;;;;;;;;;;5090977;28;20468;-55
2021/05/03 12:46:40;;;;;;;7.93;7.10;;;;;;;;;;5090933;28;20370;-55
2021/05/03 12:49:15;;;;;;;7.57;6.70;;;;;;;;;;5090586;28;20424;-55
2021/05/03 12:52:00;;;;;;;8.17;7.40;;;;;;;;;;5090949;28;20433;-55
2021/05/03 12:54:39;;;;;;;7.93;7.17;;;;;;;;;;5090507;28;20406;-55
2021/05/03 13:00:12;;;;;;;8.57;6.63;;;;;;;;;;5067131;28;20447;-55
2021/05/03 13:02:51;;;;;;;7.93;7.20;;;;;;;;;;5091056;28;20779;-55
2021/05/03 13:05:20;;;;;;;8.30;7.50;;;;;;;;;;5090609;28;20777;-55
2021/05/03 13:24:45;;;;;;;8.10;7.40;;;;;;;;;;5090471;28;20433;-55
2021/05/03 13:30:01;;;;;;;9.37;8.20;;;;;;;;;;5025734;28;20415;-59
2021/05/03 13:32:29;;;;;;;8.87;7.60;;;;;;;;;;5030456;28;20403;-58
2021/05/03 13:34:55;;;;;;;8.90;8.03;;;;;;;;;;5030256;28;20402;-59
2021/05/03 13:37:22;;;;;;;9.20;8.17;;;;;;;;;;5038170;28;20487;-58
2021/05/03 13:39:48;;;;;;;7.30;6.67;;;;;;;;;;5048770;28;20857;-60
2021/05/03 13:42:15;;;;;;;7.90;7.20;;;;;;;;;;5049119;28;20480;-60
2021/05/03 13:44:41;;;;;;;7.40;6.70;;;;;;;;;;5049348;28;20944;-59
2021/05/03 13:47:08;;;;;;;10.67;7.50;;;;;;;;;;5049998;28;20425;-59
2021/05/03 13:49:34;;;;;;;11.53;7.40;;;;;;;;;;5050096;28;20397;-59
2021/05/03 13:52:03;;;;;;;8.80;7.93;;;;;;;;;;5050430;28;20372;-59
2021/05/03 13:54:30;;;;;;;7.70;6.90;;;;;;;;;;5050537;28;20375;-58
2021/05/03 13:57:03;;;;;;;8.00;6.97;;;;;;;;;;5050436;28;20417;-59
2021/05/03 13:59:29;;;;;;;8.50;7.70;;;;;;;;;;5048919;28;20417;-61
2021/05/03 14:01:56;;;;;;;6.83;6.33;;;;;;;;;;5050320;28;20463;-59
2021/05/03 14:04:22;;;;;;;8.57;6.70;;;;;;;;;;5050066;28;20939;-59
2021/05/03 14:06:48;;;;;;;7.77;6.87;;;;;;;;;;5053659;28;20560;-59
2021/05/03 14:09:15;;;;;;;13.90;6.80;;;;;;;;;;5053577;28;20397;-59
2021/05/03 14:11:41;;;;;;;10.70;6.80;;;;;;;;;;5053701;28;20409;-59
2021/05/03 14:14:08;;;;;;;8.13;7.47;;;;;;;;;;5053624;28;20380;-61
2021/05/03 14:16:34;;;;;;;7.67;6.97;;;;;;;;;;5053324;28;20449;-60
2021/05/03 14:19:05;;;;;;;6.97;6.37;;;;;;;;;;5053315;28;20372;-59
2021/05/03 14:21:31;;;;;;;11.53;6.90;;;;;;;;;;5053612;28;20379;-59
2021/05/03 14:23:57;;;;;;;8.37;7.37;;;;;;;;;;5053343;28;20372;-59
2021/05/03 14:26:25;;;;;;;8.93;6.60;;;;;;;;;;5053477;28;20380;-58
2021/05/03 14:29:18;;;;;;;11.10;7.30;;;;;;;;;;5052901;28;20415;-59
2021/05/03 14:31:48;;;;;;;6.90;6.30;;;;;;;;;;5053313;28;20485;-58
2021/05/03 14:36:43;;;;;;;6.70;6.10;;;;;;;;;;5053153;28;20412;-60
2021/05/03 14:39:09;;;;;;;6.30;5.70;;;;;;;;;;5052833;28;20397;-59
2021/05/03 14:41:35;;;;;;;5.50;5.00;;;;;;;;;;5052989;28;20925;-61
2021/05/03 14:44:02;;;;;;;6.67;6.07;;;;;;;;;;5052926;28;20458;-58
2021/05/03 14:46:33;;;;;;;7.73;6.17;;;;;;;;;;5052965;28;20405;-59
2021/05/03 14:51:59;;;;;;;6.17;5.67;;;;;;;;;;5053096;28;20375;-59
2021/05/03 14:57:00;;;;;;;6.00;5.30;;;;;;;;;;5052796;28;20439;-58
2021/05/03 14:59:26;;;;;;;6.30;5.33;;;;;;;;;;5052465;28;20933;-58
2021/05/03 15:01:52;;;;;;;5.70;5.17;;;;;;;;;;5052744;28;20901;-57
2021/05/03 15:04:18;;;;;;;8.00;4.70;;;;;;;;;;5052577;28;20449;-59
2021/05/03 15:06:45;;;;;;;4.97;4.57;;;;;;;;;;5052290;28;20418;-58
2021/05/03 15:09:56;;;;;;;5.97;5.23;;;;;;;;;;5052318;28;20877;-59
2021/05/03 15:11:59;;;;;;;5.93;5.40;;;;;;;;;;5044991;28;21061;-59
2021/05/03 15:17:03;;;;;;;7.17;5.60;;;;;;;;;;5051517;28;20404;-60
2021/05/03 15:21:58;;;;;;;5.17;4.77;;;;;;;;;;5052475;28;20880;-59
2021/05/03 15:24:24;;;;;;;7.20;5.47;;;;;;;;;;5052265;28;20452;-58
2021/05/03 15:26:54;;;;;;;6.73;5.97;;;;;;;;;;5052042;28;20444;-58
2021/05/03 15:29:34;;;;;;;5.03;4.60;;;;;;;;;;5051980;28;20376;-59
2021/05/03 15:34:30;;;;;;;4.93;4.63;;;;;;;;;;5052274;28;20409;-59
2021/05/03 15:36:56;;;;;;;5.90;5.40;;;;;;;;;;5051917;28;20392;-59
2021/05/03 15:39:22;;;;;;;5.03;4.63;;;;;;;;;;5051772;28;20436;-59
2021/05/03 15:41:48;;;;;;;9.00;5.10;;;;;;;;;;5051864;28;20433;-59
2021/05/03 15:44:19;;;;;;;6.10;5.23;;;;;;;;;;5051781;28;20483;-60